createdAt,value
2023-04-12T00:00:11.417Z,72.34
2023-04-12T00:01:11.644Z,72.55
2023-04-12T00:02:12.016Z,72.45
2023-04-12T00:03:12.161Z,72.14
2023-04-12T00:04:12.554Z,72.55
2023-04-12T00:05:12.750Z,72.55
2023-04-12T00:06:13.008Z,73.27
2023-04-12T00:07:13.292Z,72.96
2023-04-12T00:08:13.539Z,73.16
2023-04-12T00:09:13.830Z,73.57
2023-04-12T00:10:14.093Z,73.47
2023-04-12T00:11:14.383Z,74.39
2023-04-12T00:12:14.644Z,73.98
2023-04-12T00:13:14.922Z,74.49
2023-04-12T00:14:15.227Z,74.80
2023-04-12T00:15:15.481Z,74.90
2023-04-12T00:16:22.837Z,75.51
2023-04-12T00:17:16.011Z,75.55
2023-04-12T00:18:16.314Z,74.93
2023-04-12T00:19:16.768Z,75.14
2023-04-12T00:20:16.857Z,75.55
2023-04-12T00:21:17.099Z,75.85
2023-04-12T00:22:17.427Z,75.96
2023-04-12T00:23:17.700Z,75.85
2023-04-12T00:24:17.987Z,75.45
2023-04-12T00:25:18.256Z,75.55
2023-04-12T00:26:18.530Z,75.75
2023-04-12T00:27:18.807Z,75.85
2023-04-12T00:28:19.084Z,75.85
2023-04-12T00:29:19.354Z,76.47
2023-04-12T00:30:19.644Z,76.16
2023-04-12T00:31:20.010Z,76.61
2023-04-12T00:32:20.284Z,75.89
2023-04-12T00:33:20.540Z,75.68
2023-04-12T00:34:20.812Z,76.91
2023-04-12T00:35:21.101Z,76.30
2023-04-12T00:36:21.381Z,76.81
2023-04-12T00:37:21.633Z,77.32
2023-04-12T00:38:22.074Z,76.81
2023-04-12T00:39:22.168Z,77.42
2023-04-12T00:40:22.432Z,77.83
2023-04-12T00:41:22.719Z,77.32
2023-04-12T00:42:23.004Z,77.83
2023-04-12T00:43:23.272Z,77.63
2023-04-12T00:44:23.521Z,77.73
2023-04-12T00:45:23.806Z,77.46
2023-04-12T00:46:24.126Z,78.38
2023-04-12T00:47:24.386Z,78.89
2023-04-12T00:48:24.685Z,79.20
2023-04-12T00:49:24.941Z,77.87
2023-04-12T00:50:25.188Z,78.28
2023-04-12T00:51:25.486Z,78.17
2023-04-12T00:52:25.726Z,78.89
2023-04-12T00:53:26.031Z,78.38
2023-04-12T00:54:26.277Z,77.67
2023-04-12T00:55:26.568Z,77.26
2023-04-12T00:56:26.842Z,77.76
2023-04-12T00:57:27.084Z,78.49
2023-04-12T00:58:27.361Z,78.89
2023-04-12T00:59:27.626Z,78.89
2023-04-12T01:00:28.003Z,78.79
2023-04-12T01:01:28.164Z,79.10
2023-04-12T01:02:28.454Z,78.89
2023-04-12T01:03:28.844Z,79.61
2023-04-12T01:04:28.976Z,79.41
2023-04-12T01:05:29.266Z,79.61
2023-04-12T01:06:29.517Z,79.71
2023-04-12T01:07:29.790Z,79.44
2023-04-12T01:08:30.117Z,79.71
2023-04-12T01:09:30.452Z,80.33
2023-04-12T01:10:30.634Z,79.85
2023-04-12T01:11:30.880Z,79.54
2023-04-12T01:12:31.165Z,79.44
2023-04-12T01:13:31.474Z,79.75
2023-04-12T01:14:31.752Z,79.24
2023-04-12T01:15:31.990Z,79.44
2023-04-12T01:16:32.325Z,79.75
2023-04-12T01:17:32.549Z,79.96
2023-04-12T01:18:32.813Z,79.75
2023-04-12T01:19:33.078Z,79.85
2023-04-12T01:20:33.333Z,80.16
2023-04-12T01:21:33.608Z,80.05
2023-04-12T01:22:33.864Z,80.46
2023-04-12T01:23:34.131Z,80.88
2023-04-12T01:24:34.377Z,80.88
2023-04-12T01:25:34.626Z,80.67
2023-04-12T01:26:34.936Z,80.98
2023-04-12T01:27:35.183Z,81.38
2023-04-12T01:28:35.510Z,81.29
2023-04-12T01:29:35.764Z,81.38
2023-04-12T01:30:36.038Z,82.00
2023-04-12T01:31:36.350Z,81.94
2023-04-12T01:32:36.630Z,82.35
2023-04-12T01:33:36.863Z,82.45
2023-04-12T01:34:37.134Z,82.65
2023-04-12T01:35:37.424Z,83.06
2023-04-12T01:36:37.686Z,82.45
2023-04-12T01:37:37.992Z,83.06
2023-04-12T01:38:38.289Z,83.68
2023-04-12T01:39:38.577Z,84.09
2023-04-12T01:40:38.826Z,83.47
2023-04-12T01:41:39.107Z,83.98
2023-04-12T01:42:39.394Z,83.98
2023-04-12T01:43:39.705Z,83.37
2023-04-12T01:44:39.972Z,83.88
2023-04-12T01:45:40.250Z,84.09
2023-04-12T01:46:40.500Z,83.47
2023-04-12T01:47:40.761Z,83.37
2023-04-12T01:48:40.990Z,84.09
2023-04-12T01:49:41.294Z,84.50
2023-04-12T01:50:41.542Z,84.50
2023-04-12T01:51:41.825Z,84.80
2023-04-12T01:52:42.086Z,85.25
2023-04-12T01:53:42.358Z,85.36
2023-04-12T01:54:42.634Z,86.28
2023-04-12T01:55:42.903Z,86.38
2023-04-12T01:56:43.177Z,86.48
2023-04-12T01:57:43.408Z,86.28
2023-04-12T01:58:43.747Z,86.38
2023-04-12T01:59:43.962Z,86.90
2023-04-12T02:00:44.272Z,87.30
2023-04-12T02:01:44.693Z,87.92
2023-04-12T02:02:44.940Z,88.43
2023-04-12T02:03:45.243Z,87.24
2023-04-12T02:04:45.409Z,87.45
2023-04-12T02:05:45.680Z,88.37
2023-04-12T02:06:45.924Z,87.55
2023-04-12T02:07:46.180Z,87.45
2023-04-12T02:08:46.425Z,87.76
2023-04-12T02:09:46.660Z,88.17
2023-04-12T02:10:46.930Z,88.17
2023-04-12T02:11:47.197Z,88.57
2023-04-12T02:12:47.450Z,88.78
2023-04-12T02:13:47.719Z,88.98
2023-04-12T02:14:47.981Z,89.90
2023-04-12T02:15:48.239Z,89.90
2023-04-12T02:16:48.518Z,90.73
2023-04-12T02:17:48.819Z,90.32
2023-04-12T02:18:49.013Z,90.01
2023-04-12T02:19:49.249Z,90.22
2023-04-12T02:20:49.511Z,90.05
2023-04-12T02:21:49.786Z,90.67
2023-04-12T02:22:50.945Z,90.87
2023-04-12T02:23:50.363Z,91.49
2023-04-12T02:24:50.607Z,91.69
2023-04-12T02:25:50.956Z,91.49
2023-04-12T02:26:51.358Z,91.28
2023-04-12T02:27:51.632Z,92.00
2023-04-12T02:28:51.880Z,92.61
2023-04-12T02:29:52.146Z,92.61
2023-04-12T02:30:52.447Z,92.72
2023-04-12T02:31:52.675Z,92.51
2023-04-12T02:32:52.976Z,92.51
2023-04-12T02:33:53.221Z,92.61
2023-04-12T02:34:53.501Z,92.82
2023-04-12T02:35:53.754Z,93.02
2023-04-12T02:36:54.101Z,93.02
2023-04-12T02:37:54.348Z,93.17
2023-04-12T02:38:54.592Z,93.38
2023-04-12T02:39:54.864Z,94.10
2023-04-12T02:40:55.148Z,94.10
2023-04-12T02:41:55.396Z,94.10
2023-04-12T02:42:55.660Z,94.71
2023-04-12T02:43:56.188Z,94.61
2023-04-12T02:44:56.190Z,95.02
2023-04-12T02:45:56.492Z,95.02
2023-04-12T02:46:56.729Z,95.23
2023-04-12T02:47:57.009Z,95.53
2023-04-12T02:48:57.262Z,95.23
2023-04-12T02:49:57.515Z,95.23
2023-04-12T02:50:57.751Z,95.84
2023-04-12T02:51:57.998Z,96.45
2023-04-12T02:52:58.250Z,96.77
2023-04-12T02:53:58.729Z,96.87
2023-04-12T02:54:58.805Z,96.97
2023-04-12T02:55:59.167Z,97.22
2023-04-12T02:56:59.406Z,97.22
2023-04-12T02:57:59.642Z,97.53
2023-04-12T02:59:00.030Z,97.94
2023-04-12T03:00:00.177Z,98.04
2023-04-12T03:01:00.510Z,98.35
2023-04-12T03:02:00.945Z,98.66
2023-04-12T03:03:01.177Z,98.66
2023-04-12T03:04:01.638Z,98.86
2023-04-12T03:05:01.717Z,98.96
2023-04-12T03:06:02.022Z,99.17
2023-04-12T03:07:02.266Z,99.11
2023-04-12T03:08:02.547Z,99.21
2023-04-12T03:09:02.808Z,99.21
2023-04-12T03:10:03.068Z,99.21
2023-04-12T03:11:03.289Z,99.32
2023-04-12T03:12:03.551Z,99.73
2023-04-12T03:13:03.801Z,99.52
2023-04-12T03:14:04.069Z,98.91
2023-04-12T03:15:04.354Z,99.01
2023-04-12T03:16:04.613Z,98.91
2023-04-12T03:17:04.862Z,99.21
2023-04-12T03:18:05.189Z,98.91
2023-04-12T03:19:05.393Z,99.11
2023-04-12T03:20:05.659Z,99.01
2023-04-12T03:21:05.921Z,98.91
2023-04-12T03:22:06.204Z,99.21
2023-04-12T03:23:06.415Z,99.01
2023-04-12T03:24:06.681Z,98.91
2023-04-12T03:25:06.934Z,99.01
2023-04-12T03:26:07.211Z,99.01
2023-04-12T03:27:07.502Z,99.11
2023-04-12T03:28:07.774Z,99.32
2023-04-12T03:29:09.454Z,99.32
2023-04-12T03:30:08.268Z,99.42
2023-04-12T03:31:08.526Z,99.32
2023-04-12T03:32:08.833Z,99.32
2023-04-12T03:33:09.104Z,99.32
2023-04-12T03:34:09.320Z,99.11
2023-04-12T03:35:09.633Z,99.11
2023-04-12T03:36:09.833Z,99.52
2023-04-12T03:37:10.129Z,99.63
2023-04-12T03:38:10.328Z,99.32
2023-04-12T03:39:10.606Z,99.21
2023-04-12T03:40:10.868Z,99.01
2023-04-12T03:41:11.097Z,99.11
2023-04-12T03:42:21.616Z,99.32
2023-04-12T03:43:12.630Z,99.42
2023-04-12T03:44:11.946Z,99.52
2023-04-12T03:45:12.269Z,99.52
2023-04-12T03:46:12.556Z,99.42
2023-04-12T03:47:12.782Z,99.42
2023-04-12T03:48:12.999Z,99.01
2023-04-12T03:49:13.255Z,98.91
2023-04-12T03:50:13.492Z,99.21
2023-04-12T03:51:13.736Z,99.01
2023-04-12T03:52:14.131Z,98.80
2023-04-12T03:53:14.226Z,98.70
2023-04-12T03:54:14.507Z,98.80
2023-04-12T03:55:14.762Z,98.80
2023-04-12T03:56:15.014Z,98.70
2023-04-12T03:57:15.297Z,98.60
2023-04-12T03:58:15.575Z,98.80
2023-04-12T03:59:15.815Z,99.11
2023-04-12T04:00:16.085Z,99.11
2023-04-12T04:01:16.361Z,98.70
2023-04-12T04:02:16.734Z,98.80
2023-04-12T04:03:17.054Z,98.70
2023-04-12T04:04:17.501Z,98.60
2023-04-12T04:05:17.601Z,98.80
2023-04-12T04:06:17.867Z,99.01
2023-04-12T04:07:18.148Z,99.21
2023-04-12T04:08:18.453Z,98.80
2023-04-12T04:09:18.740Z,98.60
2023-04-12T04:10:19.041Z,98.91
2023-04-12T04:11:19.307Z,98.70
2023-04-12T04:12:19.579Z,98.50
2023-04-12T04:13:19.841Z,98.29
2023-04-12T04:14:20.129Z,98.08
2023-04-12T04:15:20.429Z,98.29
2023-04-12T04:16:20.700Z,98.29
2023-04-12T04:17:20.980Z,98.39
2023-04-12T04:18:21.202Z,98.50
2023-04-12T04:19:21.450Z,98.29
2023-04-12T04:20:21.766Z,98.29
2023-04-12T04:21:22.047Z,98.50
2023-04-12T04:22:22.341Z,98.60
2023-04-12T04:23:22.606Z,98.50
2023-04-12T04:24:22.900Z,98.60
2023-04-12T04:25:23.231Z,98.60
2023-04-12T04:26:23.483Z,98.70
2023-04-12T04:27:23.741Z,99.83
2023-04-12T04:28:23.991Z,99.99
2023-04-12T04:29:24.234Z,99.52
2023-04-12T04:30:24.491Z,99.21
2023-04-12T04:31:24.774Z,99.21
2023-04-12T04:32:25.114Z,99.11
2023-04-12T04:33:25.379Z,99.01
2023-04-12T04:34:25.650Z,98.80
2023-04-12T04:35:26.007Z,98.80
2023-04-12T04:36:26.217Z,99.11
2023-04-12T04:37:26.489Z,99.11
2023-04-12T04:38:26.775Z,99.21
2023-04-12T04:39:27.060Z,99.01
2023-04-12T04:40:27.327Z,98.91
2023-04-12T04:41:27.599Z,98.70
2023-04-12T04:42:27.844Z,98.80
2023-04-12T04:43:28.104Z,98.60
2023-04-12T04:44:28.377Z,98.80
2023-04-12T04:45:28.778Z,98.70
2023-04-12T04:46:28.871Z,98.80
2023-04-12T04:47:29.208Z,98.70
2023-04-12T04:48:29.437Z,98.60
2023-04-12T04:49:29.698Z,98.91
2023-04-12T04:50:30.002Z,98.70
2023-04-12T04:51:30.305Z,98.91
2023-04-12T04:52:30.602Z,99.01
2023-04-12T04:53:30.849Z,99.01
2023-04-12T04:54:31.147Z,98.80
2023-04-12T04:55:31.434Z,98.91
2023-04-12T04:56:31.729Z,99.01
2023-04-12T04:57:31.987Z,99.11
2023-04-12T04:58:32.244Z,99.32
2023-04-12T04:59:32.515Z,99.42
2023-04-12T05:00:32.787Z,99.73
2023-04-12T05:01:33.108Z,99.73
2023-04-12T05:02:33.401Z,99.73
2023-04-12T05:03:33.664Z,99.83
2023-04-12T05:04:33.906Z,99.93
2023-04-12T05:05:34.197Z,99.99
2023-04-12T05:06:34.461Z,99.99
2023-04-12T05:07:34.712Z,99.99
2023-04-12T05:08:34.967Z,99.99
2023-04-12T05:09:35.224Z,99.99
2023-04-12T05:10:35.581Z,99.99
2023-04-12T05:11:35.864Z,99.99
2023-04-12T05:12:36.135Z,99.99
2023-04-12T05:13:36.382Z,99.99
2023-04-12T05:14:45.858Z,99.99
2023-04-12T05:15:37.970Z,99.99
2023-04-12T05:16:37.302Z,99.99
2023-04-12T05:17:37.589Z,99.99
2023-04-12T05:18:37.812Z,99.99
2023-04-12T05:19:38.073Z,99.99
2023-04-12T05:20:38.415Z,99.99
2023-04-12T05:21:38.671Z,99.99
2023-04-12T05:22:38.952Z,99.99
2023-04-12T05:23:39.226Z,99.99
2023-04-12T05:24:39.538Z,99.99
2023-04-12T05:25:39.825Z,99.99
2023-04-12T05:26:40.095Z,99.99
2023-04-12T05:27:40.417Z,99.99
2023-04-12T05:28:40.730Z,99.99
2023-04-12T05:29:41.009Z,99.99
2023-04-12T05:30:41.458Z,99.99
2023-04-12T05:31:41.562Z,99.99
2023-04-12T05:32:41.933Z,99.99
2023-04-12T05:33:42.186Z,99.99
2023-04-12T05:34:42.493Z,99.99
2023-04-12T05:35:42.832Z,99.99
2023-04-12T05:36:43.109Z,99.99
2023-04-12T05:37:43.414Z,99.99
2023-04-12T05:38:43.749Z,99.99
2023-04-12T05:39:44.063Z,99.99
2023-04-12T05:40:44.448Z,99.99
2023-04-12T05:41:44.660Z,99.99
2023-04-12T05:42:44.977Z,99.99
2023-04-12T05:43:45.257Z,99.99
2023-04-12T05:44:46.595Z,99.99
2023-04-12T05:45:45.839Z,99.99
2023-04-12T05:46:46.252Z,99.99
2023-04-12T05:47:46.428Z,99.99
2023-04-12T05:48:46.710Z,99.99
2023-04-12T05:49:47.002Z,99.99
2023-04-12T05:50:47.303Z,99.99
2023-04-12T05:51:47.602Z,99.99
2023-04-12T05:52:47.932Z,99.99
2023-04-12T05:53:48.161Z,99.99
2023-04-12T05:54:48.458Z,99.99
2023-04-12T05:55:48.771Z,99.99
2023-04-12T05:56:49.125Z,99.99
2023-04-12T05:57:49.352Z,99.99
2023-04-12T05:58:49.654Z,99.99
2023-04-12T05:59:49.913Z,99.99
2023-04-12T06:00:50.213Z,99.99
2023-04-12T06:01:50.564Z,99.99
2023-04-12T06:02:50.977Z,99.99
2023-04-12T06:03:51.174Z,99.99
2023-04-12T06:04:52.017Z,99.99
2023-04-12T06:05:51.700Z,99.99
2023-04-12T06:06:52.196Z,99.99
2023-04-12T06:07:53.784Z,99.99
2023-04-12T06:08:52.491Z,99.99
2023-04-12T06:09:52.793Z,99.99
2023-04-12T06:10:53.070Z,99.99
2023-04-12T06:11:53.368Z,99.99
2023-04-12T06:12:53.635Z,99.99
2023-04-12T06:13:53.923Z,99.99
2023-04-12T06:14:54.259Z,99.99
2023-04-12T06:15:54.589Z,99.99
2023-04-12T06:17:01.854Z,99.99
2023-04-12T06:17:55.162Z,99.99
2023-04-12T06:18:58.229Z,99.99
2023-04-12T06:19:55.622Z,99.99
2023-04-12T06:20:55.904Z,99.99
2023-04-12T06:21:56.189Z,99.99
2023-04-12T06:22:56.538Z,99.99
2023-04-12T06:23:56.750Z,99.99
2023-04-12T06:24:57.019Z,99.99
2023-04-12T06:25:57.332Z,99.99
2023-04-12T06:26:57.641Z,99.99
2023-04-12T06:27:57.907Z,99.99
2023-04-12T06:28:58.419Z,99.99
2023-04-12T06:29:58.524Z,99.99
2023-04-12T06:30:58.816Z,99.99
2023-04-12T06:31:59.117Z,99.99
2023-04-12T06:32:59.445Z,99.99
2023-04-12T06:33:59.696Z,99.99
2023-04-12T06:35:00.024Z,99.99
2023-04-12T06:36:00.342Z,99.99
2023-04-12T06:37:00.597Z,99.99
2023-04-12T06:38:00.887Z,99.99
2023-04-12T06:39:01.198Z,99.99
2023-04-12T06:40:01.478Z,99.99
2023-04-12T06:41:01.767Z,99.99
2023-04-12T06:42:02.048Z,99.99
2023-04-12T06:43:02.377Z,99.99
2023-04-12T06:44:02.672Z,99.99
2023-04-12T06:45:02.957Z,99.99
2023-04-12T06:46:03.242Z,99.99
2023-04-12T06:47:03.628Z,99.99
2023-04-12T06:48:03.854Z,99.99
2023-04-12T06:49:04.095Z,99.99
2023-04-12T06:50:04.405Z,99.99
2023-04-12T06:51:04.696Z,99.99
2023-04-12T06:52:05.023Z,99.99
2023-04-12T06:53:05.420Z,99.99
2023-04-12T06:54:05.675Z,99.99
2023-04-12T06:55:05.938Z,99.99
2023-04-12T06:56:06.246Z,99.99
2023-04-12T06:57:06.563Z,99.99
2023-04-12T06:58:06.889Z,99.99
2023-04-12T06:59:07.164Z,99.99
2023-04-12T07:00:07.441Z,99.99
2023-04-12T07:01:07.809Z,99.99
2023-04-12T07:02:08.187Z,99.99
2023-04-12T07:03:08.480Z,99.99
2023-04-12T07:04:09.598Z,99.99
2023-04-12T07:05:09.011Z,99.99
2023-04-12T07:06:23.707Z,99.99
2023-04-12T07:07:10.578Z,99.99
2023-04-12T07:08:09.875Z,99.99
2023-04-12T07:09:10.164Z,99.99
2023-04-12T07:10:10.495Z,99.99
2023-04-12T07:12:11.070Z,99.99
2023-04-12T07:13:11.412Z,99.99
2023-04-12T07:14:11.701Z,99.99
2023-04-12T07:15:12.021Z,99.99
2023-04-12T07:16:12.377Z,99.99
2023-04-12T07:17:12.637Z,99.99
2023-04-12T07:18:12.946Z,99.99
2023-04-12T07:19:13.267Z,99.99
2023-04-12T07:20:13.601Z,99.99
2023-04-12T07:21:13.865Z,99.99
2023-04-12T07:22:14.393Z,99.99
2023-04-12T07:23:14.518Z,99.99
2023-04-12T07:24:14.760Z,99.99
2023-04-12T07:25:15.064Z,99.99
2023-04-12T07:26:15.581Z,99.99
2023-04-12T07:27:15.650Z,99.99
2023-04-12T07:28:15.963Z,99.99
2023-04-12T07:29:16.258Z,99.99
2023-04-12T07:30:16.588Z,99.99
2023-04-12T07:31:16.864Z,99.99
2023-04-12T07:32:17.136Z,99.99
2023-04-12T07:33:19.973Z,99.99
2023-04-12T07:34:17.818Z,99.99
2023-04-12T07:35:17.957Z,99.99
2023-04-12T07:36:18.324Z,99.99
2023-04-12T07:37:18.577Z,99.99
2023-04-12T07:38:18.893Z,99.99
2023-04-12T07:39:19.248Z,99.99
2023-04-12T07:40:19.554Z,99.99
2023-04-12T07:41:19.857Z,99.99
2023-04-12T07:42:20.178Z,99.99
2023-04-12T07:43:20.486Z,99.99
2023-04-12T07:44:20.794Z,99.99
2023-04-12T07:45:22.078Z,99.99
2023-04-12T07:46:21.501Z,99.99
2023-04-12T07:47:21.771Z,99.99
2023-04-12T07:48:22.037Z,99.99
2023-04-12T07:49:22.381Z,99.99
2023-04-12T07:50:22.730Z,99.99
2023-04-12T07:51:23.030Z,99.99
2023-04-12T07:52:23.343Z,99.99
2023-04-12T07:53:23.676Z,99.99
2023-04-12T07:54:23.950Z,99.41
2023-04-12T07:55:24.259Z,98.90
2023-04-12T07:56:24.578Z,99.20
2023-04-12T07:57:24.881Z,99.25
2023-04-12T07:58:25.168Z,99.66
2023-04-12T07:59:25.492Z,99.76
2023-04-12T08:00:25.828Z,99.99
2023-04-12T08:01:26.150Z,99.99
2023-04-12T08:02:26.561Z,99.99
2023-04-12T08:03:26.857Z,99.99
2023-04-12T08:04:27.257Z,99.99
2023-04-12T08:05:27.293Z,99.99
2023-04-12T08:06:30.476Z,99.99
2023-04-12T08:07:27.822Z,99.99
2023-04-12T08:08:28.102Z,99.99
2023-04-12T08:09:28.404Z,99.99
2023-04-12T08:10:28.737Z,99.99
2023-04-12T08:11:29.043Z,99.99
2023-04-12T08:12:29.335Z,99.99
2023-04-12T08:13:29.655Z,99.99
2023-04-12T08:14:29.963Z,99.99
2023-04-12T08:15:30.319Z,99.99
2023-04-12T08:16:30.641Z,99.99
2023-04-12T08:17:30.950Z,99.99
2023-04-12T08:18:31.261Z,99.99
2023-04-12T08:19:31.577Z,99.99
2023-04-12T08:20:31.909Z,99.99
2023-04-12T08:21:32.248Z,99.99
2023-04-12T08:22:32.565Z,99.99
2023-04-12T08:23:32.857Z,99.99
2023-04-12T08:24:33.160Z,99.99
2023-04-12T08:25:33.524Z,99.99
2023-04-12T08:26:33.818Z,99.99
2023-04-12T08:27:34.154Z,99.99
2023-04-12T08:28:34.443Z,99.99
2023-04-12T08:29:34.766Z,99.99
2023-04-12T08:30:35.129Z,99.99
2023-04-12T08:31:35.484Z,99.99
2023-04-12T08:32:35.664Z,99.99
2023-04-12T08:33:35.945Z,99.62
2023-04-12T08:34:36.249Z,99.41
2023-04-12T08:35:36.612Z,99.57
2023-04-12T08:36:36.917Z,99.37
2023-04-12T08:37:37.223Z,98.50
2023-04-12T08:38:45.391Z,98.40
2023-04-12T08:39:38.949Z,97.49
2023-04-12T08:40:38.063Z,96.77
2023-04-12T08:41:39.158Z,96.87
2023-04-12T08:42:38.675Z,97.38
2023-04-12T08:43:39.012Z,96.87
2023-04-12T08:44:39.338Z,97.28
2023-04-12T08:45:39.670Z,97.89
2023-04-12T08:46:40.041Z,97.79
2023-04-12T08:47:40.356Z,98.20
2023-04-12T08:48:40.705Z,97.53
2023-04-12T08:49:40.929Z,97.94
2023-04-12T08:50:41.211Z,97.94
2023-04-12T08:51:41.603Z,98.14
2023-04-12T08:52:41.828Z,97.83
2023-04-12T08:53:42.023Z,97.63
2023-04-12T08:54:42.341Z,98.14
2023-04-12T08:55:42.624Z,98.45
2023-04-12T08:56:42.956Z,98.96
2023-04-12T08:57:43.230Z,98.81
2023-04-12T08:58:43.532Z,98.91
2023-04-12T08:59:43.811Z,98.20
2023-04-12T09:00:44.128Z,98.20
2023-04-12T09:01:44.495Z,98.05
2023-04-12T09:02:44.898Z,97.54
2023-04-12T09:03:45.252Z,97.13
2023-04-12T09:04:45.407Z,96.72
2023-04-12T09:05:45.587Z,96.98
2023-04-12T09:06:45.865Z,97.04
2023-04-12T09:07:46.175Z,96.02
2023-04-12T09:08:46.609Z,95.87
2023-04-12T09:09:46.766Z,95.67
2023-04-12T09:10:47.075Z,95.12
2023-04-12T09:11:47.385Z,94.04
2023-04-12T09:12:47.693Z,94.71
2023-04-12T09:13:48.033Z,94.40
2023-04-12T09:14:48.322Z,94.50
2023-04-12T09:15:48.645Z,93.48
2023-04-12T09:16:48.935Z,92.87
2023-04-12T09:17:49.290Z,93.69
2023-04-12T09:18:49.489Z,93.99
2023-04-12T09:19:49.790Z,93.28
2023-04-12T09:20:50.054Z,93.54
2023-04-12T09:21:50.371Z,92.72
2023-04-12T09:22:50.690Z,92.32
2023-04-12T09:23:50.975Z,92.83
2023-04-12T09:24:51.277Z,92.11
2023-04-12T09:25:51.627Z,92.32
2023-04-12T09:26:51.951Z,92.38
2023-04-12T09:27:52.231Z,91.97
2023-04-12T09:28:52.531Z,92.58
2023-04-12T09:29:52.823Z,92.27
2023-04-12T09:30:53.148Z,92.03
2023-04-12T09:31:53.489Z,91.52
2023-04-12T09:32:53.806Z,91.66
2023-04-12T09:33:54.072Z,91.36
2023-04-12T09:34:54.377Z,91.77
2023-04-12T09:35:54.741Z,92.48
2023-04-12T09:36:55.061Z,91.97
2023-04-12T09:37:55.339Z,91.61
2023-04-12T09:38:55.635Z,92.32
2023-04-12T09:39:55.982Z,92.52
2023-04-12T09:40:56.279Z,92.87
2023-04-12T09:41:56.580Z,92.67
2023-04-12T09:42:56.883Z,93.69
2023-04-12T09:43:57.448Z,94.24
2023-04-12T09:44:57.483Z,94.30
2023-04-12T09:45:57.864Z,94.81
2023-04-12T09:46:58.116Z,94.60
2023-04-12T09:47:58.291Z,94.30
2023-04-12T09:48:58.586Z,94.20
2023-04-12T09:49:58.897Z,94.04
2023-04-12T09:50:59.173Z,94.65
2023-04-12T09:51:59.695Z,94.95
2023-04-12T09:52:59.832Z,95.47
2023-04-12T09:54:00.150Z,95.06
2023-04-12T09:55:00.464Z,94.95
2023-04-12T09:56:00.786Z,95.47
2023-04-12T09:57:01.075Z,95.62
2023-04-12T09:58:01.364Z,95.26
2023-04-12T09:59:01.682Z,95.36
2023-04-12T10:00:02.095Z,96.23
2023-04-12T10:01:02.268Z,95.83
2023-04-12T10:02:02.713Z,95.01
2023-04-12T10:03:03.165Z,95.52
2023-04-12T10:04:03.462Z,95.52
2023-04-12T10:05:03.467Z,95.58
2023-04-12T10:06:03.679Z,95.89
2023-04-12T10:07:03.895Z,95.37
2023-04-12T10:08:04.236Z,95.28
2023-04-12T10:09:04.608Z,94.87
2023-04-12T10:10:04.853Z,95.37
2023-04-12T10:11:05.115Z,96.25
2023-04-12T10:12:05.430Z,95.53
2023-04-12T10:13:05.710Z,95.18
2023-04-12T10:14:06.039Z,94.43
2023-04-12T10:15:06.362Z,93.21
2023-04-12T10:16:06.777Z,94.12
2023-04-12T10:17:06.985Z,93.98
2023-04-12T10:18:07.322Z,93.02
2023-04-12T10:19:07.610Z,92.67
2023-04-12T10:20:07.967Z,92.52
2023-04-12T10:21:08.234Z,92.18
2023-04-12T10:22:08.527Z,90.61
2023-04-12T10:23:08.860Z,90.51
2023-04-12T10:24:09.149Z,90.41
2023-04-12T10:25:09.472Z,90.51
2023-04-12T10:26:09.800Z,90.14
2023-04-12T10:27:10.136Z,90.55
2023-04-12T10:28:10.433Z,91.71
2023-04-12T10:29:10.735Z,92.52
2023-04-12T10:30:11.007Z,93.44
2023-04-12T10:31:11.315Z,94.15
2023-04-12T10:32:11.695Z,93.03
2023-04-12T10:33:11.969Z,93.90
2023-04-12T10:34:12.246Z,93.19
2023-04-12T10:35:12.562Z,92.48
2023-04-12T10:36:12.888Z,93.29
2023-04-12T10:37:13.214Z,93.60
2023-04-12T10:38:13.492Z,93.35
2023-04-12T10:39:13.849Z,92.54
2023-04-12T10:40:14.131Z,91.89
2023-04-12T10:41:14.442Z,90.26
2023-04-12T10:42:14.728Z,91.02
2023-04-12T10:43:15.075Z,91.17
2023-04-12T10:44:15.340Z,90.73
2023-04-12T10:45:15.656Z,89.83
2023-04-12T10:46:16.001Z,88.21
2023-04-12T10:47:16.387Z,86.49
2023-04-12T10:48:16.697Z,86.79
2023-04-12T10:49:16.961Z,85.88
2023-04-12T10:50:17.239Z,87.60
2023-04-12T10:51:17.598Z,87.54
2023-04-12T10:52:17.900Z,88.15
2023-04-12T10:53:18.257Z,88.20
2023-04-12T10:54:18.550Z,87.48
2023-04-12T10:55:19.711Z,88.49
2023-04-12T10:56:19.207Z,89.61
2023-04-12T10:57:19.466Z,89.35
2023-04-12T10:58:19.791Z,87.92
2023-04-12T10:59:20.117Z,88.06
2023-04-12T11:00:20.556Z,88.20
2023-04-12T11:01:20.974Z,88.95
2023-04-12T11:02:21.195Z,89.46
2023-04-12T11:03:21.585Z,90.01
2023-04-12T11:04:22.047Z,90.42
2023-04-12T11:05:21.981Z,91.53
2023-04-12T11:06:27.262Z,90.62
2023-04-12T11:07:23.517Z,90.58
2023-04-12T11:08:22.747Z,91.09
2023-04-12T11:09:23.023Z,91.69
2023-04-12T11:10:23.319Z,91.19
2023-04-12T11:11:23.627Z,90.88
2023-04-12T11:12:23.947Z,90.88
2023-04-12T11:13:24.287Z,90.58
2023-04-12T11:14:24.644Z,90.58
2023-04-12T11:15:24.903Z,91.64
2023-04-12T11:16:25.256Z,91.94
2023-04-12T11:17:25.816Z,91.17
2023-04-12T11:18:25.967Z,92.03
2023-04-12T11:19:26.151Z,91.11
2023-04-12T11:20:26.440Z,91.77
2023-04-12T11:21:26.778Z,91.71
2023-04-12T11:22:27.070Z,92.32
2023-04-12T11:23:27.404Z,92.97
2023-04-12T11:24:27.726Z,93.07
2023-04-12T11:25:28.006Z,93.99
2023-04-12T11:26:28.326Z,93.64
2023-04-12T11:27:28.609Z,92.11
2023-04-12T11:28:31.179Z,91.01
2023-04-12T11:29:29.233Z,91.23
2023-04-12T11:30:29.515Z,90.17
2023-04-12T11:31:29.850Z,89.48
2023-04-12T11:32:30.210Z,88.73
2023-04-12T11:33:30.479Z,86.25
2023-04-12T11:34:30.803Z,84.78
2023-04-12T11:35:31.142Z,85.09
2023-04-12T11:36:31.442Z,84.85
2023-04-12T11:37:31.774Z,84.14
2023-04-12T11:38:32.126Z,84.44
2023-04-12T11:39:33.359Z,85.25
2023-04-12T11:40:32.748Z,83.23
2023-04-12T11:41:33.075Z,81.04
2023-04-12T11:42:33.415Z,81.24
2023-04-12T11:43:33.734Z,81.44
2023-04-12T11:44:52.081Z,81.91
2023-04-12T11:45:35.279Z,81.30
2023-04-12T11:46:34.624Z,80.39
2023-04-12T11:47:34.829Z,82.11
2023-04-12T11:48:35.117Z,82.68
2023-04-12T11:49:35.462Z,82.38
2023-04-12T11:50:35.809Z,82.03
2023-04-12T11:51:36.056Z,82.28
2023-04-12T11:52:36.379Z,82.28
2023-04-12T11:53:36.715Z,83.59
2023-04-12T11:54:37.021Z,81.67
2023-04-12T11:55:37.339Z,81.37
2023-04-12T11:56:37.680Z,81.16
2023-04-12T11:57:37.953Z,79.78
2023-04-12T11:58:38.263Z,80.73
2023-04-12T11:59:38.544Z,81.64
2023-04-12T12:00:38.856Z,81.74
2023-04-12T12:01:39.299Z,82.31
2023-04-12T12:02:46.594Z,82.01
2023-04-12T12:03:40.891Z,81.71
2023-04-12T12:04:40.495Z,81.24
2023-04-12T12:05:40.499Z,81.85
2023-04-12T12:06:41.287Z,80.02
2023-04-12T12:07:41.021Z,79.45
2023-04-12T12:08:41.294Z,80.87
2023-04-12T12:09:41.597Z,81.48
2023-04-12T12:10:51.978Z,82.86
2023-04-12T12:11:43.209Z,82.96
2023-04-12T12:12:42.667Z,82.72
2023-04-12T12:13:43.085Z,82.52
2023-04-12T12:14:43.161Z,81.77
2023-04-12T12:15:43.495Z,80.96
2023-04-12T12:16:43.790Z,81.02
2023-04-12T12:17:51.157Z,80.41
2023-04-12T12:18:44.387Z,80.01
2023-04-12T12:19:44.706Z,80.21
2023-04-12T12:20:46.694Z,79.87
2023-04-12T12:21:45.319Z,79.57
2023-04-12T12:22:45.639Z,78.42
2023-04-12T12:23:45.947Z,77.61
2023-04-12T12:24:46.235Z,78.08
2023-04-12T12:25:46.542Z,76.05
2023-04-12T12:26:46.897Z,75.85
2023-04-12T12:27:47.193Z,75.85
2023-04-12T12:28:47.482Z,75.61
2023-04-12T12:29:47.745Z,74.90
2023-04-12T12:30:48.069Z,76.42
2023-04-12T12:31:48.436Z,75.71
2023-04-12T12:32:48.714Z,72.88
2023-04-12T12:33:48.982Z,74.90
2023-04-12T12:34:49.304Z,74.19
2023-04-12T12:35:49.654Z,75.51
2023-04-12T12:36:49.920Z,73.99
2023-04-12T12:37:50.204Z,72.17
2023-04-12T12:38:50.518Z,71.30
2023-04-12T12:39:50.807Z,74.07
2023-04-12T12:40:51.093Z,74.33
2023-04-12T12:41:51.425Z,73.32
2023-04-12T12:42:51.755Z,72.78
2023-04-12T12:43:52.072Z,75.21
2023-04-12T12:44:52.348Z,74.90
2023-04-12T12:45:52.672Z,73.19
2023-04-12T12:46:57.142Z,72.41
2023-04-12T12:47:54.419Z,72.11
2023-04-12T12:48:53.650Z,73.32
2023-04-12T12:49:53.951Z,75.55
2023-04-12T12:50:54.276Z,76.19
2023-04-12T12:51:54.638Z,76.39
2023-04-12T12:52:54.903Z,77.00
2023-04-12T12:53:55.376Z,76.90
2023-04-12T12:54:55.538Z,75.99
2023-04-12T12:55:55.849Z,74.67
2023-04-12T12:56:56.196Z,74.74